Airfield :
LOGIN :

Register | Disclaimer

   EN    FR    IT 

 










Legend :    VFR   Marginal VFR   IFR   Intensive IFR   Very Intensive IFR
Visi :
Ceiling :
>= 8 km
>= 3000ft
5 to 8 km
1000 to 3000 ft
1500m to 5 km
500 to 1000 ft
800 to 1500m
200 to 500 ft
< 800m
< 200 ft
Symbols :   Thunderstorms  Fog  Heavy snow  Heavy precipitations  Wind > 20 kt
SIGMETs :     Misc.  Thunderstorms  Icing  Turbulence  Mountain Waves  Volcanic Ashes







- Airport Elevation : 587 ft
- IATA code : XCR
- Download approach charts


LFOK - Chalons Vatry

CURRENT METAR :
  • 200730Z AUTO 18009KT 9999 OVC031 01/00 Q1023 BECMG OVC013

EXPIRED METARs :
  • 200700Z AUTO 18008KT 9999 OVC030 01/M00 Q1023 NOSIG
  • 200630Z AUTO 18005KT 9999 OVC030 01/M00 Q1023 NOSIG
  • 200600Z AUTO 18005KT 9999 OVC030 01/M00 Q1023 NOSIG
  • 200530Z AUTO 18004KT 9999 OVC030 00/M01 Q1023 NOSIG
  • 200500Z AUTO 18005KT 9999 OVC030 00/M01 Q1023 NOSIG

TAF TAF LFOK
Valid from the 20 at 06:00 until the 21 at 06:00 UTC


200500Z 2006/2106 20010KT 9999 BKN030
BECMG 2009/2011 OVC013
TEMPO 2013/2106 1500 DZ OVC003
No reported NOTAMs for that airfield.



MET'MAP, your aeronautical weather chart ! - Copyright ORBIFLY December 2007 - Disclaimer

ORBIFLY MET'MAP TEAM :

Programming & Development : Alexandra Zaïnal
Concept & Development : Baudouin d'Aumeries
Co-Development & Prog : Marc-Olivier Méhu
Technical & hardware support : Manuel Goepfert

Contact : metmap@orbifly.com




SOURCES & CREDITS :

   NOAA